Terminal Aerodrome Forecast
Issued by NWS

Home | Current Version | Previous Version | Text Only | Print | Product List | Glossary On
Versions: 1 2 3 4 5 6 7 8 9 10 11 12 13 14 15 16 17
000
FTUS43 KICT 261100
TAFHUT
TAF
KHUT 261127Z 2612/2712 18011KT P6SM SCT150 BKN250
     FM261500 23014G22KT P6SM BKN150
     FM262100 29007KT P6SM BKN150
     FM270200 02005KT P6SM VCTS SCT080CB BKN150
     FM270900 02005KT P6SM BKN150=

USA.gov is the U.S. government's official web portal to all federal, state and local government web resources and services.